createdAt,value
2023-01-29T00:01:43.901Z,0.95
2023-01-29T00:04:47.586Z,0.93
2023-01-29T00:07:58.509Z,0.90
2023-01-29T00:11:03.762Z,0.88
2023-01-29T00:14:07.254Z,0.83
2023-01-29T00:17:10.867Z,0.81
2023-01-29T00:20:15.663Z,0.81
2023-01-29T00:23:19.335Z,0.77
2023-01-29T00:26:22.814Z,0.77
2023-01-29T00:29:26.735Z,0.75
2023-01-29T00:32:31.096Z,0.72
2023-01-29T00:35:35.108Z,0.70
2023-01-29T00:38:40.123Z,0.70
2023-01-29T00:42:02.830Z,0.69
2023-01-29T00:45:07.677Z,0.68
2023-01-29T00:48:10.395Z,0.66
2023-01-29T00:51:13.332Z,0.64
2023-01-29T00:54:16.118Z,0.66
2023-01-29T00:57:18.820Z,0.63
2023-01-29T01:00:21.857Z,0.65
2023-01-29T01:03:24.878Z,0.63
2023-01-29T01:06:31.881Z,0.62
2023-01-29T01:10:01.249Z,0.59
2023-01-29T01:13:07.197Z,0.56
2023-01-29T01:16:16.249Z,0.53
2023-01-29T01:19:21.681Z,0.54
2023-01-29T01:22:25.764Z,0.51
2023-01-29T01:25:29.215Z,0.49
2023-01-29T01:28:40.768Z,0.45
2023-01-29T01:31:46.374Z,0.42
2023-01-29T01:34:49.211Z,0.40
2023-01-29T01:37:53.121Z,0.37
2023-01-29T01:40:55.954Z,0.35
2023-01-29T01:44:06.388Z,0.34
2023-01-29T01:47:08.913Z,0.31
2023-01-29T01:50:18.819Z,0.32
2023-01-29T01:53:39.568Z,0.31
2023-01-29T01:56:50.369Z,0.34
2023-01-29T02:00:10.281Z,0.31
2023-01-29T02:03:40.098Z,0.27
2023-01-29T02:07:06.244Z,0.24
2023-01-29T02:10:14.034Z,0.17
2023-01-29T02:13:19.463Z,0.08
2023-01-29T02:16:23.157Z,0.01
2023-01-29T02:19:38.214Z,-0.09
2023-01-29T02:23:18.671Z,-0.17
2023-01-29T02:26:24.801Z,-0.26
2023-01-29T02:29:35.339Z,-0.36
2023-01-29T02:32:55.255Z,-0.40
2023-01-29T02:36:19.740Z,-0.43
2023-01-29T02:39:36.982Z,-0.50
2023-01-29T02:43:18.197Z,-0.51
2023-01-29T02:46:43.785Z,-0.57
2023-01-29T02:50:02.237Z,-0.60
2023-01-29T02:53:13.055Z,-0.63
2023-01-29T02:56:22.359Z,-0.67
2023-01-29T02:59:34.321Z,-0.69
2023-01-29T03:02:49.151Z,-0.74
2023-01-29T03:06:24.583Z,-0.81
2023-01-29T03:09:36.343Z,-0.83
2023-01-29T03:12:41.677Z,-0.89
2023-01-29T03:15:51.366Z,-0.88
2023-01-29T03:19:03.388Z,-0.88
2023-01-29T03:22:09.004Z,-0.87
2023-01-29T03:25:34.341Z,-0.79
2023-01-29T03:29:00.259Z,-0.78
2023-01-29T03:32:09.435Z,-0.74
2023-01-29T03:35:21.119Z,-0.71
2023-01-29T03:38:31.717Z,-0.65
2023-01-29T03:42:08.392Z,-0.60
2023-01-29T03:45:31.543Z,-0.54
2023-01-29T03:48:56.114Z,-0.45
2023-01-29T03:52:09.073Z,-0.40
2023-01-29T03:55:15.993Z,-0.34
2023-01-29T03:58:36.861Z,-0.32
2023-01-29T04:01:54.072Z,-0.27
2023-01-29T04:05:05.325Z,-0.25
2023-01-29T04:08:17.843Z,-0.24
2023-01-29T04:11:23.954Z,-0.20
2023-01-29T04:14:27.110Z,-0.17
2023-01-29T04:17:36.863Z,-0.13
2023-01-29T04:20:40.425Z,-0.10
2023-01-29T04:23:43.880Z,-0.08
2023-01-29T04:27:06.871Z,-0.04
2023-01-29T04:30:22.151Z,-0.01
2023-01-29T04:33:53.267Z,0.02
2023-01-29T04:37:15.285Z,0.04
2023-01-29T04:40:29.043Z,0.06
2023-01-29T04:43:44.410Z,0.04
2023-01-29T04:47:03.606Z,0.07
2023-01-29T04:50:22.220Z,0.09
2023-01-29T04:53:52.677Z,0.10
2023-01-29T04:57:09.248Z,0.14
2023-01-29T05:00:27.279Z,0.16
2023-01-29T05:03:32.905Z,0.17
2023-01-29T05:06:37.017Z,0.18
2023-01-29T05:09:44.237Z,0.21
2023-01-29T05:12:51.710Z,0.21
2023-01-29T05:16:01.805Z,0.22
2023-01-29T05:19:04.857Z,0.24
2023-01-29T05:22:16.351Z,0.25
2023-01-29T05:25:27.319Z,0.25
2023-01-29T05:28:34.622Z,0.25
2023-01-29T05:31:37.611Z,0.28
2023-01-29T05:34:40.977Z,0.28
2023-01-29T05:37:43.892Z,0.28
2023-01-29T05:41:08.381Z,0.28
2023-01-29T05:44:18.066Z,0.29
2023-01-29T05:47:23.395Z,0.30
2023-01-29T05:50:28.692Z,0.31
2023-01-29T05:53:34.331Z,0.30
2023-01-29T05:56:44.505Z,0.31
2023-01-29T05:59:48.711Z,0.31
2023-01-29T06:02:53.766Z,0.32
2023-01-29T06:05:57.013Z,0.31
2023-01-29T06:09:01.686Z,0.33
2023-01-29T06:12:07.963Z,0.34
2023-01-29T06:15:11.425Z,0.35
2023-01-29T06:18:16.052Z,0.35
2023-01-29T06:21:20.326Z,0.35
2023-01-29T06:24:26.345Z,0.38
2023-01-29T06:27:31.821Z,0.36
2023-01-29T06:30:45.386Z,0.39
2023-01-29T06:33:58.749Z,0.37
2023-01-29T06:37:02.139Z,0.38
2023-01-29T06:40:07.641Z,0.38
2023-01-29T06:43:13.585Z,0.41
2023-01-29T06:46:17.460Z,0.43
2023-01-29T06:49:25.183Z,0.43
2023-01-29T06:52:37.267Z,0.43
2023-01-29T06:55:42.656Z,0.42
2023-01-29T06:58:55.264Z,0.44
2023-01-29T07:02:01.275Z,0.45
2023-01-29T07:05:06.428Z,0.48
2023-01-29T07:08:10.379Z,0.48
2023-01-29T07:11:13.722Z,0.49
2023-01-29T07:14:18.232Z,0.51
2023-01-29T07:17:22.157Z,0.52
2023-01-29T07:20:30.207Z,0.54
2023-01-29T07:23:35.639Z,0.57
2023-01-29T07:26:40.535Z,0.60
2023-01-29T07:29:50.207Z,0.62
2023-01-29T07:32:53.871Z,0.66
2023-01-29T07:35:58.742Z,0.65
2023-01-29T07:39:04.441Z,0.67
2023-01-29T07:42:10.487Z,0.66
2023-01-29T07:45:14.586Z,0.67
2023-01-29T07:48:20.292Z,0.73
2023-01-29T07:51:24.600Z,0.63
2023-01-29T07:54:28.402Z,0.72
2023-01-29T07:58:02.152Z,0.76
2023-01-29T08:01:08.421Z,0.80
2023-01-29T08:04:20.113Z,0.84
2023-01-29T08:07:32.326Z,0.84
2023-01-29T08:10:39.111Z,0.91
2023-01-29T08:13:44.427Z,0.97
2023-01-29T08:16:57.820Z,0.97
2023-01-29T08:20:01.549Z,0.93
2023-01-29T08:23:14.652Z,0.93
2023-01-29T08:26:31.290Z,0.97
2023-01-29T08:29:42.145Z,0.99
2023-01-29T08:32:53.546Z,1.01
2023-01-29T08:36:18.186Z,0.99
2023-01-29T08:39:27.317Z,1.01
2023-01-29T08:42:38.751Z,1.03
2023-01-29T08:45:52.138Z,1.05
2023-01-29T08:48:59.501Z,1.07
2023-01-29T08:52:12.459Z,0.96
2023-01-29T08:55:20.788Z,1.05
2023-01-29T08:58:30.492Z,1.05
2023-01-29T09:01:36.812Z,1.15
2023-01-29T09:04:44.254Z,1.18
2023-01-29T09:07:52.136Z,1.14
2023-01-29T09:11:05.480Z,1.17
2023-01-29T09:14:16.251Z,1.13
2023-01-29T09:17:28.284Z,1.12
2023-01-29T09:20:40.522Z,1.17
2023-01-29T09:23:47.196Z,1.15
2023-01-29T09:26:57.767Z,1.08
2023-01-29T09:30:02.310Z,1.06
2023-01-29T09:33:14.261Z,1.05
2023-01-29T09:36:27.264Z,1.08
2023-01-29T09:39:37.798Z,1.08
2023-01-29T09:42:50.963Z,1.09
2023-01-29T09:46:15.514Z,1.06
2023-01-29T09:49:34.594Z,1.07
2023-01-29T09:53:16.073Z,1.15
2023-01-29T09:56:33.480Z,1.17
2023-01-29T09:59:40.297Z,1.22
2023-01-29T10:03:08.330Z,1.27
2023-01-29T10:06:35.550Z,1.37
2023-01-29T10:10:11.126Z,1.45
2023-01-29T10:13:35.161Z,1.54
2023-01-29T10:17:24.801Z,1.63
2023-01-29T10:21:32.263Z,1.64
2023-01-29T10:24:55.477Z,1.72
2023-01-29T10:28:05.250Z,1.80
2023-01-29T10:31:29.201Z,1.78
2023-01-29T10:34:56.521Z,1.75
2023-01-29T10:38:41.247Z,1.67
2023-01-29T10:42:18.050Z,1.64
2023-01-29T10:46:04.332Z,1.58
2023-01-29T10:49:28.652Z,1.53
2023-01-29T10:53:06.379Z,1.56
2023-01-29T10:56:25.553Z,1.51
2023-01-29T11:00:07.468Z,1.49
2023-01-29T11:03:31.406Z,1.41
2023-01-29T11:06:41.052Z,1.34
2023-01-29T11:10:00.871Z,1.28
2023-01-29T11:13:13.800Z,1.28
2023-01-29T11:16:20.563Z,1.19
2023-01-29T11:19:44.170Z,1.15
2023-01-29T11:23:07.586Z,1.15
2023-01-29T11:26:25.538Z,1.17
2023-01-29T11:30:05.189Z,1.20
2023-01-29T11:33:27.240Z,1.20
2023-01-29T11:36:42.604Z,1.30
2023-01-29T11:40:00.161Z,1.44
2023-01-29T11:43:28.248Z,1.46
2023-01-29T11:46:33.667Z,1.50
2023-01-29T11:49:40.533Z,1.55
2023-01-29T11:52:46.262Z,1.66
2023-01-29T11:55:57.402Z,1.76
2023-01-29T11:59:08.241Z,1.86
2023-01-29T12:02:28.312Z,1.84
2023-01-29T12:05:35.286Z,1.98
2023-01-29T12:08:43.239Z,2.29
2023-01-29T12:11:57.230Z,2.67
2023-01-29T12:15:14.134Z,2.82
2023-01-29T12:18:40.500Z,2.73
2023-01-29T12:21:50.152Z,2.48
2023-01-29T12:25:24.183Z,2.20
2023-01-29T12:28:39.630Z,1.95
2023-01-29T12:31:58.552Z,1.89
2023-01-29T12:35:42.282Z,1.79
2023-01-29T12:38:46.438Z,1.64
2023-01-29T12:41:57.734Z,1.47
2023-01-29T12:45:08.260Z,1.46
2023-01-29T12:48:23.180Z,1.35
2023-01-29T12:51:40.223Z,1.26
2023-01-29T12:54:56.171Z,1.20
2023-01-29T12:58:05.270Z,1.16
2023-01-29T13:01:25.182Z,1.13
2023-01-29T13:04:45.669Z,1.16
2023-01-29T13:08:10.153Z,1.10
2023-01-29T13:11:27.248Z,0.91
2023-01-29T13:14:44.319Z,0.79
2023-01-29T13:17:55.561Z,0.76
2023-01-29T13:21:07.307Z,0.60
2023-01-29T13:24:25.494Z,0.51
2023-01-29T13:27:36.098Z,0.45
2023-01-29T13:30:41.798Z,0.46
2023-01-29T13:34:00.200Z,0.47
2023-01-29T13:37:35.228Z,0.53
2023-01-29T13:40:50.853Z,0.58
2023-01-29T13:43:57.159Z,0.66
2023-01-29T13:47:11.708Z,0.65
2023-01-29T13:50:35.293Z,0.67
2023-01-29T13:53:50.071Z,0.68
2023-01-29T13:57:01.201Z,0.71
2023-01-29T14:00:12.252Z,0.69
2023-01-29T14:03:22.131Z,0.67
2023-01-29T14:06:53.693Z,0.73
2023-01-29T14:10:16.309Z,0.76
2023-01-29T14:13:32.161Z,0.76
2023-01-29T14:16:37.573Z,0.78
2023-01-29T14:19:56.806Z,0.80
2023-01-29T14:23:25.407Z,0.80
2023-01-29T14:26:44.003Z,0.79
2023-01-29T14:30:06.154Z,0.75
2023-01-29T14:33:37.187Z,0.67
2023-01-29T14:36:43.389Z,0.59
2023-01-29T14:40:13.278Z,0.54
2023-01-29T14:43:22.003Z,0.42
2023-01-29T14:46:44.788Z,0.31
2023-01-29T14:49:58.408Z,0.17
2023-01-29T14:53:31.216Z,0.12
2023-01-29T14:57:01.102Z,0.02
2023-01-29T15:00:28.604Z,-0.08
2023-01-29T15:03:54.153Z,-0.15
2023-01-29T15:07:20.305Z,-0.20
2023-01-29T15:10:46.151Z,-0.25
2023-01-29T15:14:12.085Z,-0.34
2023-01-29T15:17:33.139Z,-0.37
2023-01-29T15:20:40.760Z,-0.45
2023-01-29T15:23:50.422Z,-0.48
2023-01-29T15:26:55.374Z,-0.51
2023-01-29T15:30:14.149Z,-0.57
2023-01-29T15:33:19.112Z,-0.65
2023-01-29T15:36:33.448Z,-0.71
2023-01-29T15:39:46.148Z,-0.77
2023-01-29T15:42:59.048Z,-0.84
2023-01-29T15:46:16.682Z,-0.91
2023-01-29T15:49:42.238Z,-0.97
2023-01-29T15:53:00.399Z,-1.03
2023-01-29T15:56:35.028Z,-1.08
2023-01-29T15:59:44.981Z,-1.07
2023-01-29T16:03:00.071Z,-1.10
2023-01-29T16:06:18.381Z,-1.18
2023-01-29T16:09:28.219Z,-1.22
2023-01-29T16:12:35.194Z,-1.24
2023-01-29T16:15:58.426Z,-1.26
2023-01-29T16:19:25.214Z,-1.32
2023-01-29T16:22:41.726Z,-1.34
2023-01-29T16:25:57.122Z,-1.39
2023-01-29T16:29:15.108Z,-1.44
2023-01-29T16:32:23.138Z,-1.49
2023-01-29T16:35:28.326Z,-1.55
2023-01-29T16:38:47.182Z,-1.57
2023-01-29T16:42:17.591Z,-1.66
2023-01-29T16:45:43.057Z,-1.68
2023-01-29T16:49:09.094Z,-1.72
2023-01-29T16:52:27.820Z,-1.74
2023-01-29T16:55:51.160Z,-1.76
2023-01-29T16:58:58.217Z,-1.73
2023-01-29T17:02:23.238Z,-1.70
2023-01-29T17:05:39.125Z,-1.64
2023-01-29T17:08:44.137Z,-1.56
2023-01-29T17:12:08.026Z,-1.52
2023-01-29T17:15:46.248Z,-1.53
2023-01-29T17:18:58.331Z,-1.57
2023-01-29T17:22:06.118Z,-1.62
2023-01-29T17:25:25.124Z,-1.67
2023-01-29T17:28:31.006Z,-1.72
2023-01-29T17:31:43.203Z,-1.75
2023-01-29T17:34:49.775Z,-1.78
2023-01-29T17:37:58.190Z,-1.75
2023-01-29T17:41:39.132Z,-1.81
2023-01-29T17:44:45.130Z,-1.87
2023-01-29T17:47:58.136Z,-1.87
2023-01-29T17:51:18.131Z,-1.86
2023-01-29T17:54:28.356Z,-1.84
2023-01-29T17:57:38.488Z,-1.85
2023-01-29T18:00:47.181Z,-1.86
2023-01-29T18:03:59.309Z,-1.88
2023-01-29T18:07:12.199Z,-1.90
2023-01-29T18:10:23.743Z,-1.92
2023-01-29T18:13:29.228Z,-1.92
2023-01-29T18:16:46.553Z,-1.99
2023-01-29T18:19:52.121Z,-1.98
2023-01-29T18:23:11.388Z,-2.03
2023-01-29T18:26:31.229Z,-2.08
2023-01-29T18:29:47.165Z,-2.12
2023-01-29T18:32:58.517Z,-2.14
2023-01-29T18:36:06.848Z,-2.18
2023-01-29T18:39:13.499Z,-2.24
2023-01-29T18:42:25.027Z,-2.27
2023-01-29T18:45:31.227Z,-2.26
2023-01-29T18:48:42.511Z,-2.29
2023-01-29T18:51:52.090Z,-2.29
2023-01-29T18:55:03.346Z,-2.29
2023-01-29T18:58:28.510Z,-2.30
2023-01-29T19:01:34.331Z,-2.35
2023-01-29T19:04:47.054Z,-2.44
2023-01-29T19:07:53.083Z,-2.47
2023-01-29T19:11:04.054Z,-2.53
2023-01-29T19:14:15.085Z,-2.57
2023-01-29T19:17:37.126Z,-2.57
2023-01-29T19:20:52.067Z,-2.62
2023-01-29T19:24:04.461Z,-2.62
2023-01-29T19:27:09.907Z,-2.67
2023-01-29T19:30:17.324Z,-2.68
2023-01-29T19:33:21.796Z,-2.65
2023-01-29T19:36:34.276Z,-2.65
2023-01-29T19:39:38.777Z,-2.68
2023-01-29T19:42:43.243Z,-2.69
2023-01-29T19:45:55.419Z,-2.71
2023-01-29T19:49:04.154Z,-2.72
2023-01-29T19:52:49.707Z,-2.80
2023-01-29T19:56:13.424Z,-2.84
2023-01-29T19:59:21.543Z,-2.85
2023-01-29T20:02:33.312Z,-2.84
2023-01-29T20:05:56.980Z,-2.84
2023-01-29T20:09:11.985Z,-2.85
2023-01-29T20:12:23.210Z,-2.89
2023-01-29T20:15:38.009Z,-2.94
2023-01-29T20:18:53.534Z,-2.95
2023-01-29T20:22:09.122Z,-2.97
2023-01-29T20:25:22.109Z,-3.00
2023-01-29T20:28:35.080Z,-2.99
2023-01-29T20:31:38.913Z,-3.00
2023-01-29T20:34:47.443Z,-3.01
2023-01-29T20:37:56.121Z,-3.03
2023-01-29T20:41:21.069Z,-3.03
2023-01-29T20:44:28.088Z,-3.04
2023-01-29T20:47:39.371Z,-3.04
2023-01-29T20:50:44.115Z,-3.05
2023-01-29T20:53:51.170Z,-3.08
2023-01-29T20:57:12.231Z,-3.08
2023-01-29T21:00:22.121Z,-3.11
2023-01-29T21:03:29.630Z,-3.09
2023-01-29T21:06:36.591Z,-3.07
2023-01-29T21:09:48.057Z,-3.08
2023-01-29T21:13:01.335Z,-3.08
2023-01-29T21:16:11.044Z,-3.10
2023-01-29T21:19:21.814Z,-3.14
2023-01-29T21:22:26.989Z,-3.13
2023-01-29T21:25:40.244Z,-3.11
2023-01-29T21:28:53.233Z,-3.14
2023-01-29T21:31:55.953Z,-3.15
2023-01-29T21:35:00.093Z,-3.16
2023-01-29T21:38:06.065Z,-3.15
2023-01-29T21:41:12.256Z,-3.19
2023-01-29T21:44:17.073Z,-3.21
2023-01-29T21:47:24.090Z,-3.20
2023-01-29T21:50:34.985Z,-3.19
2023-01-29T21:53:40.063Z,-3.14
2023-01-29T21:56:51.804Z,-3.13
2023-01-29T21:59:56.128Z,-3.15
2023-01-29T22:03:01.540Z,-3.16
2023-01-29T22:06:07.129Z,-3.16
2023-01-29T22:09:11.260Z,-3.11
2023-01-29T22:12:14.502Z,-3.13
2023-01-29T22:15:17.468Z,-3.13
2023-01-29T22:18:21.850Z,-3.16
2023-01-29T22:21:24.828Z,-3.15
2023-01-29T22:24:28.657Z,-3.19
2023-01-29T22:27:34.056Z,-3.22
2023-01-29T22:30:39.192Z,-3.22
2023-01-29T22:33:44.069Z,-3.28
2023-01-29T22:36:47.601Z,-3.32
2023-01-29T22:39:53.620Z,-3.32
2023-01-29T22:42:57.543Z,-3.37
2023-01-29T22:46:00.468Z,-3.39
2023-01-29T22:49:04.556Z,-3.39
2023-01-29T22:52:10.552Z,-3.45
2023-01-29T22:55:14.101Z,-3.48
2023-01-29T22:58:18.085Z,-3.49
2023-01-29T23:01:24.287Z,-3.50
2023-01-29T23:04:27.425Z,-3.53
2023-01-29T23:07:31.103Z,-3.55
2023-01-29T23:10:34.586Z,-3.58
2023-01-29T23:13:38.115Z,-3.57
2023-01-29T23:16:42.445Z,-3.59
2023-01-29T23:19:48.035Z,-3.61
2023-01-29T23:22:51.938Z,-3.63
2023-01-29T23:26:19.004Z,-3.63
2023-01-29T23:29:23.127Z,-3.63
2023-01-29T23:32:32.958Z,-3.63
2023-01-29T23:35:35.957Z,-3.59
2023-01-29T23:38:40.347Z,-3.61
2023-01-29T23:41:43.646Z,-3.60
2023-01-29T23:44:48.125Z,-3.70
2023-01-29T23:47:50.655Z,-3.74
2023-01-29T23:50:53.820Z,-3.82
2023-01-29T23:53:56.742Z,-3.83
2023-01-29T23:56:59.857Z,-3.90
